Aurelia — PB5046 — position and weather

sailwx.info

Track history (hours):
 
Tides and Currents Weather Stations Pressure Air Temp Water Temp Dewpoint Dewpoint Depression Visibility Wind Speed Wind Dir Waves Ship Positions

Aurelia

Last reported at 2014-Apr-12 10:27 UTC. Time now 2014-Nov-28 18:12 UTC.
Position N 27°04' W 079°56'.
Warning: this ship's position is months out of date.

Length 32 m; draft 3.8 m.

Type: Pleasure craft. MMSI: 244630125.

Date/timePositionNaut miles runAvg speedWind from/ knotsBaromVisibWave heightAir tempDewpointWater temp
2014-Apr-12 10:27N 27°04' W 079°56'29 8.9
2014-Apr-12 07:10N 26°35' W 079°57'5 8.2
2014-Apr-12 06:33N 26°30' W 079°59'8 8.2
2014-Apr-12 05:33N 26°22' W 080°01'8 7.9
2014-Apr-12 04:33N 26°15' W 080°03'7 7.2
2014-Apr-12 03:33N 26°08' W 080°05'3 2.9
2014-Apr-12 02:25N 26°05' W 080°07'0 0.0
2014-Apr-12 01:24N 26°05' W 080°07'0 0.0
2014-Apr-12 00:17N 26°05' W 080°07'0 0.0
2014-Apr-11 23:22N 26°05' W 080°07'0 0.0
2014-Apr-11 22:32N 26°05' W 080°07'0 0.0
2014-Apr-11 21:26N 26°05' W 080°07'0 0.0
2014-Apr-11 20:25N 26°05' W 080°07'0 0.0
2014-Apr-11 19:28N 26°05' W 080°07'0 0.0
2014-Apr-11 18:18N 26°05' W 080°07'0 0.0
2014-Apr-11 17:20N 26°05' W 080°07'0 0.0
2014-Apr-11 16:27N 26°05' W 080°07'0 0.0
2014-Apr-11 15:17N 26°05' W 080°07'0 0.0
2014-Apr-11 14:21N 26°05' W 080°07'0 0.0
2014-Apr-11 13:28N 26°05' W 080°07'0 0.0
2014-Apr-11 12:31N 26°05' W 080°07'0 0.0
2014-Apr-11 11:26N 26°05' W 080°07'0 0.0
2014-Apr-11 10:32N 26°05' W 080°07'0 0.0
2014-Apr-11 09:17N 26°05' W 080°07'0 0.0
2014-Apr-11 08:33N 26°05' W 080°07'0 0.0
2014-Apr-11 07:32N 26°05' W 080°07'0 0.0
2014-Apr-11 06:05N 26°05' W 080°07'0 0.0
2014-Apr-11 05:32N 26°05' W 080°07'0 0.0
2014-Apr-11 04:33N 26°05' W 080°07'0 0.0
2014-Apr-11 03:33N 26°05' W 080°07'0 0.0
2014-Apr-11 02:33N 26°05' W 080°07'0 0.0
2014-Apr-11 01:33N 26°05' W 080°07'0 0.0
2014-Apr-11 00:32N 26°05' W 080°07'0 0.0
2014-Apr-10 23:31N 26°05' W 080°07'0 0.0
2014-Apr-10 22:34N 26°05' W 080°07'0 0.0
2014-Apr-10 21:27N 26°05' W 080°07'0 0.0
2014-Apr-10 20:30N 26°05' W 080°07'0 0.0
2014-Apr-10 19:25N 26°05' W 080°07'0 0.0
2014-Apr-10 18:12N 26°05' W 080°07'0 0.0
2014-Apr-10 17:20N 26°05' W 080°07'0 0.0
2014-Apr-10 16:33N 26°05' W 080°07'3 2.8
2014-Apr-10 15:33N 26°05' W 080°04'2 1.7
2014-Apr-10 14:33N 26°03' W 080°04'2 1.6
2014-Apr-10 13:33N 26°01' W 080°03'1 1.1
2014-Apr-10 12:33N 26°00' W 080°03'0 0.4
2014-Apr-10 11:30N 26°01' W 080°03'0 0.4
2014-Apr-10 10:33N 26°00' W 080°03'1 0.7
2014-Apr-10 09:33N 26°01' W 080°03'1 0.8
2014-Apr-10 08:33N 26°02' W 080°03'1 0.7
2014-Apr-10 07:33N 26°02' W 080°02'0 0.4
2014-Apr-10 06:33N 26°03' W 080°02'0 0.3
2014-Apr-10 05:32N 26°02' W 080°02'0 0.3
2014-Apr-10 04:33N 26°03' W 080°02'0 0.3
2014-Apr-10 03:33N 26°03' W 080°02'0 0.2
2014-Apr-10 02:34N 26°03' W 080°02'3 3.0
2014-Apr-10 01:33N 25°60' W 080°01'9 8.2
2014-Apr-10 00:29N 25°52' W 079°57'  
Track history (hours):
 
Tides and Currents Weather Stations Pressure Air Temp Water Temp Dewpoint Dewpoint Depression Visibility Wind Speed Wind Dir Waves Ship Positions

Aurelia

Last reported at 2014-Apr-12 10:27 UTC. Time now 2014-Nov-28 18:12 UTC.
Position N 27°04' W 079°56'.
Warning: this ship's position is months out of date.

Length 32 m; draft 3.8 m.

Type: Pleasure craft. MMSI: 244630125.

Date/timePositionNaut miles runAvg speedWind from/ knotsBaromVisibWave heightAir tempDewpointWater temp
2014-Apr-12 10:27N 27°04' W 079°56'29 8.9
2014-Apr-12 07:10N 26°35' W 079°57'5 8.2
2014-Apr-12 06:33N 26°30' W 079°59'8 8.2
2014-Apr-12 05:33N 26°22' W 080°01'8 7.9
2014-Apr-12 04:33N 26°15' W 080°03'7 7.2
2014-Apr-12 03:33N 26°08' W 080°05'3 2.9
2014-Apr-12 02:25N 26°05' W 080°07'0 0.0
2014-Apr-12 01:24N 26°05' W 080°07'0 0.0
2014-Apr-12 00:17N 26°05' W 080°07'0 0.0
2014-Apr-11 23:22N 26°05' W 080°07'0 0.0
2014-Apr-11 22:32N 26°05' W 080°07'0 0.0
2014-Apr-11 21:26N 26°05' W 080°07'0 0.0
2014-Apr-11 20:25N 26°05' W 080°07'0 0.0
2014-Apr-11 19:28N 26°05' W 080°07'0 0.0
2014-Apr-11 18:18N 26°05' W 080°07'0 0.0
2014-Apr-11 17:20N 26°05' W 080°07'0 0.0
2014-Apr-11 16:27N 26°05' W 080°07'0 0.0
2014-Apr-11 15:17N 26°05' W 080°07'0 0.0
2014-Apr-11 14:21N 26°05' W 080°07'0 0.0
2014-Apr-11 13:28N 26°05' W 080°07'0 0.0
2014-Apr-11 12:31N 26°05' W 080°07'0 0.0
2014-Apr-11 11:26N 26°05' W 080°07'0 0.0
2014-Apr-11 10:32N 26°05' W 080°07'0 0.0
2014-Apr-11 09:17N 26°05' W 080°07'0 0.0
2014-Apr-11 08:33N 26°05' W 080°07'0 0.0
2014-Apr-11 07:32N 26°05' W 080°07'0 0.0
2014-Apr-11 06:05N 26°05' W 080°07'0 0.0
2014-Apr-11 05:32N 26°05' W 080°07'0 0.0
2014-Apr-11 04:33N 26°05' W 080°07'0 0.0
2014-Apr-11 03:33N 26°05' W 080°07'0 0.0
2014-Apr-11 02:33N 26°05' W 080°07'0 0.0
2014-Apr-11 01:33N 26°05' W 080°07'0 0.0
2014-Apr-11 00:32N 26°05' W 080°07'0 0.0
2014-Apr-10 23:31N 26°05' W 080°07'0 0.0
2014-Apr-10 22:34N 26°05' W 080°07'0 0.0
2014-Apr-10 21:27N 26°05' W 080°07'0 0.0
2014-Apr-10 20:30N 26°05' W 080°07'0 0.0
2014-Apr-10 19:25N 26°05' W 080°07'0 0.0
2014-Apr-10 18:12N 26°05' W 080°07'0 0.0
2014-Apr-10 17:20N 26°05' W 080°07'0 0.0
2014-Apr-10 16:33N 26°05' W 080°07'3 2.8
2014-Apr-10 15:33N 26°05' W 080°04'2 1.7
2014-Apr-10 14:33N 26°03' W 080°04'2 1.6
2014-Apr-10 13:33N 26°01' W 080°03'1 1.1
2014-Apr-10 12:33N 26°00' W 080°03'0 0.4
2014-Apr-10 11:30N 26°01' W 080°03'0 0.4
2014-Apr-10 10:33N 26°00' W 080°03'1 0.7
2014-Apr-10 09:33N 26°01' W 080°03'1 0.8
2014-Apr-10 08:33N 26°02' W 080°03'1 0.7
2014-Apr-10 07:33N 26°02' W 080°02'0 0.4
2014-Apr-10 06:33N 26°03' W 080°02'0 0.3
2014-Apr-10 05:32N 26°02' W 080°02'0 0.3
2014-Apr-10 04:33N 26°03' W 080°02'0 0.3
2014-Apr-10 03:33N 26°03' W 080°02'0 0.2
2014-Apr-10 02:34N 26°03' W 080°02'3 3.0
2014-Apr-10 01:33N 25°60' W 080°01'9 8.2
2014-Apr-10 00:29N 25°52' W 079°57'  

Dump ship's entire track history